Marilyn M — WDH6367 — position and weather

sailwx.info

Track history (hours):
 
Tides and Currents Weather Stations Pressure Air Temp Water Temp Dewpoint Dewpoint Depression Visibility Wind Speed Wind Dir Waves Ship Positions

Marilyn M

Owner: Offshore Oil Services Inc., Clute, TX. More information available from US FCC via Universal Licensing System and Coast Guard Vessel Documentation Center.

Last reported at 2018-May-22 08:37 UTC. Time now 2018-May-22 21:37 UTC.
Position N 29°49' W 093°21'.

Length 45 m; draft 3 m.

Type: Passenger vessel. MMSI: 367637210.

Date/timePositionNaut miles runAvg speedWind from/ knotsBaromVisibWave heightAir tempDewpointWater temp
2018-May-22 08:37N 29°49' W 093°21'2 0.3
2018-May-22 03:16N 29°48' W 093°20'35 5.7
2018-May-21 21:06N 29°20' W 093°44'223.9
2018-May-21 21:00N 29°22' W 093°42'3314.5
2018-May-21 18:45N 29°48' W 093°20'2 3.9
2018-May-21 18:20N 29°49' W 093°20'0 0.3
2018-May-21 18:00N 29°49' W 093°20'0 0.0
2018-May-21 05:43N 29°49' W 093°20'0 0.0
2018-May-21 05:28N 29°49' W 093°20'0 0.0
2018-May-21 04:48N 29°49' W 093°20'0 0.0
2018-May-21 04:30N 29°49' W 093°20'0 0.0
2018-May-20 10:31N 29°49' W 093°21'0 9.3
2018-May-20 10:30N 29°49' W 093°20'39 2.9
2018-May-19 21:02N 29°21' W 093°52'119.1
2018-May-19 20:59N 29°22' W 093°51'918.9
2018-May-19 20:30N 29°27' W 093°42'918.1
2018-May-19 20:00N 29°33' W 093°35'20 8.8
2018-May-19 17:42N 29°49' W 093°20'0 0.1
2018-May-19 15:52N 29°49' W 093°21'0 0.0
2018-May-19 14:38N 29°49' W 093°21'0 0.0
2018-May-19 14:25N 29°49' W 093°21'0 0.0
2018-May-19 13:58N 29°49' W 093°21'0 0.0
2018-May-19 02:36N 29°49' W 093°20'0 0.1
2018-May-19 02:30N 29°49' W 093°20'0 0.0
2018-May-19 01:49N 29°49' W 093°20'0 0.0
2018-May-19 01:17N 29°49' W 093°20'2513.7
2018-May-18 23:30N 29°29' W 093°36'15 3.9
2018-May-18 19:37N 29°22' W 093°52'325.0
2018-May-18 19:29N 29°24' W 093°49'1225.0
2018-May-18 19:00N 29°32' W 093°38'2315.2
2018-May-18 17:28N 29°49' W 093°20'0 0.0
2018-May-18 07:53N 29°49' W 093°20'0 0.0
2018-May-18 07:30N 29°49' W 093°20'0 0.0
2018-May-18 07:00N 29°49' W 093°20'0 0.0
2018-May-18 06:30N 29°49' W 093°20'0 0.2
2018-May-18 06:00N 29°49' W 093°20'2 4.4
2018-May-18 05:30N 29°47' W 093°21'5916.5
2018-May-18 01:55N 29°08' W 094°12'0 0.1
2018-May-18 01:30N 29°08' W 094°12'1 1.6
2018-May-18 01:00N 29°09' W 094°12'1 1.4
2018-May-18 00:30N 29°09' W 094°12'0 0.9
2018-May-18 00:00N 29°09' W 094°13'0 0.9
2018-May-17 23:30N 29°09' W 094°13'0 0.9
2018-May-17 23:00N 29°08' W 094°13'3 5.2
2018-May-17 22:30N 29°08' W 094°10'1 2.8
2018-May-17 22:00N 29°08' W 094°09'912.5
2018-May-17 21:20N 29°14' W 094°02'823.3
2018-May-17 21:00N 29°18' W 093°55'1223.8
2018-May-17 20:30N 29°25' W 093°44'1223.2
2018-May-17 20:00N 29°33' W 093°34'1223.4
2018-May-17 19:30N 29°40' W 093°23'814.6
2018-May-17 18:57N 29°48' W 093°21'2 0.4
2018-May-17 14:52N 29°49' W 093°20'0 0.0
2018-May-17 14:30N 29°49' W 093°20'0 0.0
2018-May-17 13:52N 29°49' W 093°20'0 0.0
2018-May-17 13:21N 29°49' W 093°20'0 0.0
2018-May-17 12:59N 29°49' W 093°20'0 0.2
2018-May-17 12:30N 29°49' W 093°20'0 0.0
2018-May-17 12:01N 29°49' W 093°20'0 0.0
2018-May-17 11:27N 29°49' W 093°20'0 0.0
2018-May-17 10:58N 29°49' W 093°20'0 0.0
2018-May-17 10:25N 29°49' W 093°20'0 0.0
2018-May-17 07:53N 29°49' W 093°20'0 0.0
2018-May-17 07:18N 29°49' W 093°20'0 0.0
2018-May-17 06:48N 29°49' W 093°20'2 6.2
2018-May-17 06:25N 29°47' W 093°21'512.8
2018-May-17 05:59N 29°42' W 093°18'1121.3
2018-May-17 05:29N 29°37' W 093°07'1020.5
2018-May-17 05:00N 29°33' W 092°57'1020.0
2018-May-17 04:30N 29°29' W 092°46'1020.0
2018-May-17 04:00N 29°27' W 092°35'1221.4
2018-May-17 03:28N 29°27' W 092°22'715.4
2018-May-17 03:00N 29°33' W 092°18'2 4.1
2018-May-17 02:30N 29°35' W 092°18'510.4
2018-May-17 02:00N 29°40' W 092°15'8 0.6
2018-May-16 13:11N 29°47' W 092°10'0 0.0
2018-May-16 12:29N 29°47' W 092°10'89 2.6
2018-May-15 02:05N 28°30' W 091°19'223.0
2018-May-15 02:00N 28°28' W 091°20'1122.8
2018-May-15 01:30N 28°19' W 091°27'1 1.1
2018-May-15 01:00N 28°18' W 091°27'0 0.2
2018-May-15 00:23N 28°18' W 091°27'0 0.1
2018-May-14 17:35N 28°18' W 091°27'0 2.3
2018-May-14 17:30N 28°18' W 091°27'918.1
2018-May-14 17:01N 28°24' W 091°19'  
Track history (hours):
 
Tides and Currents Weather Stations Pressure Air Temp Water Temp Dewpoint Dewpoint Depression Visibility Wind Speed Wind Dir Waves Ship Positions

Marilyn M

Owner: Offshore Oil Services Inc., Clute, TX. More information available from US FCC via Universal Licensing System and Coast Guard Vessel Documentation Center.

Last reported at 2018-May-22 08:37 UTC. Time now 2018-May-22 21:37 UTC.
Position N 29°49' W 093°21'.

Length 45 m; draft 3 m.

Type: Passenger vessel. MMSI: 367637210.

Date/timePositionNaut miles runAvg speedWind from/ knotsBaromVisibWave heightAir tempDewpointWater temp
2018-May-22 08:37N 29°49' W 093°21'2 0.3
2018-May-22 03:16N 29°48' W 093°20'35 5.7
2018-May-21 21:06N 29°20' W 093°44'223.9
2018-May-21 21:00N 29°22' W 093°42'3314.5
2018-May-21 18:45N 29°48' W 093°20'2 3.9
2018-May-21 18:20N 29°49' W 093°20'0 0.3
2018-May-21 18:00N 29°49' W 093°20'0 0.0
2018-May-21 05:43N 29°49' W 093°20'0 0.0
2018-May-21 05:28N 29°49' W 093°20'0 0.0
2018-May-21 04:48N 29°49' W 093°20'0 0.0
2018-May-21 04:30N 29°49' W 093°20'0 0.0
2018-May-20 10:31N 29°49' W 093°21'0 9.3
2018-May-20 10:30N 29°49' W 093°20'39 2.9
2018-May-19 21:02N 29°21' W 093°52'119.1
2018-May-19 20:59N 29°22' W 093°51'918.9
2018-May-19 20:30N 29°27' W 093°42'918.1
2018-May-19 20:00N 29°33' W 093°35'20 8.8
2018-May-19 17:42N 29°49' W 093°20'0 0.1
2018-May-19 15:52N 29°49' W 093°21'0 0.0
2018-May-19 14:38N 29°49' W 093°21'0 0.0
2018-May-19 14:25N 29°49' W 093°21'0 0.0
2018-May-19 13:58N 29°49' W 093°21'0 0.0
2018-May-19 02:36N 29°49' W 093°20'0 0.1
2018-May-19 02:30N 29°49' W 093°20'0 0.0
2018-May-19 01:49N 29°49' W 093°20'0 0.0
2018-May-19 01:17N 29°49' W 093°20'2513.7
2018-May-18 23:30N 29°29' W 093°36'15 3.9
2018-May-18 19:37N 29°22' W 093°52'325.0
2018-May-18 19:29N 29°24' W 093°49'1225.0
2018-May-18 19:00N 29°32' W 093°38'2315.2
2018-May-18 17:28N 29°49' W 093°20'0 0.0
2018-May-18 07:53N 29°49' W 093°20'0 0.0
2018-May-18 07:30N 29°49' W 093°20'0 0.0
2018-May-18 07:00N 29°49' W 093°20'0 0.0
2018-May-18 06:30N 29°49' W 093°20'0 0.2
2018-May-18 06:00N 29°49' W 093°20'2 4.4
2018-May-18 05:30N 29°47' W 093°21'5916.5
2018-May-18 01:55N 29°08' W 094°12'0 0.1
2018-May-18 01:30N 29°08' W 094°12'1 1.6
2018-May-18 01:00N 29°09' W 094°12'1 1.4
2018-May-18 00:30N 29°09' W 094°12'0 0.9
2018-May-18 00:00N 29°09' W 094°13'0 0.9
2018-May-17 23:30N 29°09' W 094°13'0 0.9
2018-May-17 23:00N 29°08' W 094°13'3 5.2
2018-May-17 22:30N 29°08' W 094°10'1 2.8
2018-May-17 22:00N 29°08' W 094°09'912.5
2018-May-17 21:20N 29°14' W 094°02'823.3
2018-May-17 21:00N 29°18' W 093°55'1223.8
2018-May-17 20:30N 29°25' W 093°44'1223.2
2018-May-17 20:00N 29°33' W 093°34'1223.4
2018-May-17 19:30N 29°40' W 093°23'814.6
2018-May-17 18:57N 29°48' W 093°21'2 0.4
2018-May-17 14:52N 29°49' W 093°20'0 0.0
2018-May-17 14:30N 29°49' W 093°20'0 0.0
2018-May-17 13:52N 29°49' W 093°20'0 0.0
2018-May-17 13:21N 29°49' W 093°20'0 0.0
2018-May-17 12:59N 29°49' W 093°20'0 0.2
2018-May-17 12:30N 29°49' W 093°20'0 0.0
2018-May-17 12:01N 29°49' W 093°20'0 0.0
2018-May-17 11:27N 29°49' W 093°20'0 0.0
2018-May-17 10:58N 29°49' W 093°20'0 0.0
2018-May-17 10:25N 29°49' W 093°20'0 0.0
2018-May-17 07:53N 29°49' W 093°20'0 0.0
2018-May-17 07:18N 29°49' W 093°20'0 0.0
2018-May-17 06:48N 29°49' W 093°20'2 6.2
2018-May-17 06:25N 29°47' W 093°21'512.8
2018-May-17 05:59N 29°42' W 093°18'1121.3
2018-May-17 05:29N 29°37' W 093°07'1020.5
2018-May-17 05:00N 29°33' W 092°57'1020.0
2018-May-17 04:30N 29°29' W 092°46'1020.0
2018-May-17 04:00N 29°27' W 092°35'1221.4
2018-May-17 03:28N 29°27' W 092°22'715.4
2018-May-17 03:00N 29°33' W 092°18'2 4.1
2018-May-17 02:30N 29°35' W 092°18'510.4
2018-May-17 02:00N 29°40' W 092°15'8 0.6
2018-May-16 13:11N 29°47' W 092°10'0 0.0
2018-May-16 12:29N 29°47' W 092°10'89 2.6
2018-May-15 02:05N 28°30' W 091°19'223.0
2018-May-15 02:00N 28°28' W 091°20'1122.8
2018-May-15 01:30N 28°19' W 091°27'1 1.1
2018-May-15 01:00N 28°18' W 091°27'0 0.2
2018-May-15 00:23N 28°18' W 091°27'0 0.1
2018-May-14 17:35N 28°18' W 091°27'0 2.3
2018-May-14 17:30N 28°18' W 091°27'918.1
2018-May-14 17:01N 28°24' W 091°19'  

Dump ship's entire track history